Wheelwright, MA (01094)

6:58 AM EDT on September 05, 2015 (GMT -0400)
KMABARRE2 | | Change Station
CLOSE
Current Station
Personal Weather Station
Location: Barre, MA
Elevation: 620 ft
Nearby Weather Stations

Elev 620 ft 42.38 °N, 72.11 °W | Updated 1 minute ago

Clear
Clear
43.9 °F
Feels Like 44 °F
N
0.0
Wind Variable Wind from ESE

Today
High -- | Low -- °F
--% Chance of Precip.
Yesterday
High -- | Low -- °F
Precip. -- in
6:17 AM 7:16 PM
Waning Gibbous, 50% visible
Pressure 30.32 in
Visibility 10.0 miles
Clouds Clear
Windchill 44 °F
Dew Point 44 °F
Humidity 99%
Rainfall 0.00 in
Snow Depth Not available.
UV 0 out of 12
Pollen 8.70 out of 12
Air Quality Not available.
Flu Activity Not available.
METAR KORH 051054Z 34004KT 10SM CLR 15/06 A3032 RMK AO2 SLP266 T01500061
Pressure 30.32 in
Visibility 10.0 miles
Clouds Clear
Windchill 44 °F
Dew Point 44 °F
Humidity 99%
Rainfall 0.00 in
Snow Depth Not available.
UV 0 out of 12
Pollen 8.70 out of 12
Air Quality Not available.
Flu Activity Not available.
METAR KORH 051054Z 34004KT 10SM CLR 15/06 A3032 RMK AO2 SLP266 T01500061

10-Day Weather Forecast

×

Almanac

Astronomy

Sep. 05, 2015 Rise Set
Actual Time
Civil Twilight
Nautical Twilight
Astronomical Twilight
Moon
Length of Visible Light
Length of Day
Tomorrow will be .
, % of the Moon is Illuminated

Today's Extremes

State Highs State Lows

Community

WunderPhotos

Upload Photos

1,852,439 photos uploaded!

WunderBlogs® & News

Nearby

Air Quality

  Air Quality AQ Index Pollutant
Not available.

Snow Depth

Station Depth Elevation

Earthquake Activity

City Distance Mag. Time & Date
Minimum magnitude displayed is 2.5.

Coastal Water Temperatures

Place Temperature

Stations

Nearby Weather Stations

Station Location Temp. Windchill Dew Point Humidity Wind Precip. Elev Updated Type